sensor_id;sensor_type;location;lat;lon;timestamp;P1;durP1;ratioP1;P2;durP2;ratioP2
70049;SDS011;57391;51.306;22.680;2022-07-29T00:00:09;4.60;;;2.40;;
70049;SDS011;57391;51.306;22.680;2022-07-29T00:02:57;5.00;;;2.50;;
70049;SDS011;57391;51.306;22.680;2022-07-29T00:05:24;5.20;;;2.60;;
70049;SDS011;57391;51.306;22.680;2022-07-29T00:07:51;6.60;;;2.70;;
70049;SDS011;57391;51.306;22.680;2022-07-29T00:10:18;5.00;;;2.20;;
70049;SDS011;57391;51.306;22.680;2022-07-29T00:12:46;6.00;;;2.60;;
70049;SDS011;57391;51.306;22.680;2022-07-29T00:15:13;6.60;;;2.60;;
70049;SDS011;57391;51.306;22.680;2022-07-29T00:17:41;7.20;;;2.80;;
70049;SDS011;57391;51.306;22.680;2022-07-29T00:20:08;6.70;;;2.60;;
70049;SDS011;57391;51.306;22.680;2022-07-29T00:22:39;6.10;;;3.00;;
70049;SDS011;57391;51.306;22.680;2022-07-29T00:25:06;6.00;;;2.40;;
70049;SDS011;57391;51.306;22.680;2022-07-29T00:27:35;6.40;;;2.40;;
70049;SDS011;57391;51.306;22.680;2022-07-29T00:30:04;8.70;;;3.20;;
70049;SDS011;57391;51.306;22.680;2022-07-29T00:32:32;5.60;;;2.80;;
70049;SDS011;57391;51.306;22.680;2022-07-29T00:34:59;8.20;;;3.00;;
70049;SDS011;57391;51.306;22.680;2022-07-29T00:37:45;7.00;;;3.30;;
70049;SDS011;57391;51.306;22.680;2022-07-29T00:40:12;6.90;;;3.00;;
70049;SDS011;57391;51.306;22.680;2022-07-29T00:42:48;7.40;;;3.10;;
70049;SDS011;57391;51.306;22.680;2022-07-29T00:45:18;5.90;;;2.90;;
70049;SDS011;57391;51.306;22.680;2022-07-29T00:47:48;6.40;;;3.20;;
70049;SDS011;57391;51.306;22.680;2022-07-29T00:50:16;8.90;;;3.30;;
70049;SDS011;57391;51.306;22.680;2022-07-29T00:52:44;6.60;;;2.80;;
70049;SDS011;57391;51.306;22.680;2022-07-29T00:55:13;5.70;;;3.30;;
70049;SDS011;57391;51.306;22.680;2022-07-29T00:57:43;7.30;;;3.00;;
70049;SDS011;57391;51.306;22.680;2022-07-29T01:00:18;7.70;;;3.20;;
70049;SDS011;57391;51.306;22.680;2022-07-29T01:02:47;6.30;;;2.90;;
70049;SDS011;57391;51.306;22.680;2022-07-29T01:05:18;8.70;;;3.50;;
70049;SDS011;57391;51.306;22.680;2022-07-29T01:07:49;6.60;;;3.20;;
70049;SDS011;57391;51.306;22.680;2022-07-29T01:10:20;8.00;;;3.10;;
70049;SDS011;57391;51.306;22.680;2022-07-29T01:12:50;8.20;;;3.20;;
70049;SDS011;57391;51.306;22.680;2022-07-29T01:15:19;6.80;;;3.40;;
70049;SDS011;57391;51.306;22.680;2022-07-29T01:23:17;7.70;;;3.20;;
70049;SDS011;57391;51.306;22.680;2022-07-29T01:26:03;11.10;;;3.50;;
70049;SDS011;57391;51.306;22.680;2022-07-29T01:31:52;7.90;;;3.40;;
70049;SDS011;57391;51.306;22.680;2022-07-29T01:34:29;8.50;;;3.50;;
70049;SDS011;57391;51.306;22.680;2022-07-29T01:37:19;7.50;;;3.50;;
70049;SDS011;57391;51.306;22.680;2022-07-29T01:39:53;8.30;;;3.30;;
70049;SDS011;57391;51.306;22.680;2022-07-29T01:48:15;7.60;;;3.50;;
70049;SDS011;57391;51.306;22.680;2022-07-29T01:50:54;8.90;;;3.40;;
70049;SDS011;57391;51.306;22.680;2022-07-29T01:53:35;7.00;;;3.60;;
70049;SDS011;57391;51.306;22.680;2022-07-29T01:56:10;8.30;;;3.70;;
70049;SDS011;57391;51.306;22.680;2022-07-29T01:58:40;6.80;;;3.50;;
70049;SDS011;57391;51.306;22.680;2022-07-29T02:01:11;8.70;;;3.70;;
70049;SDS011;57391;51.306;22.680;2022-07-29T02:03:43;7.00;;;3.70;;
70049;SDS011;57391;51.306;22.680;2022-07-29T02:06:19;8.30;;;3.80;;
70049;SDS011;57391;51.306;22.680;2022-07-29T02:08:50;8.20;;;3.30;;
70049;SDS011;57391;51.306;22.680;2022-07-29T02:11:19;7.60;;;3.50;;
70049;SDS011;57391;51.306;22.680;2022-07-29T02:13:47;6.50;;;3.40;;
70049;SDS011;57391;51.306;22.680;2022-07-29T02:16:17;8.20;;;3.20;;
70049;SDS011;57391;51.306;22.680;2022-07-29T02:18:50;8.70;;;3.40;;
70049;SDS011;57391;51.306;22.680;2022-07-29T02:21:24;9.70;;;3.20;;
70049;SDS011;57391;51.306;22.680;2022-07-29T02:23:53;6.80;;;3.60;;
70049;SDS011;57391;51.306;22.680;2022-07-29T02:26:24;8.00;;;3.50;;
70049;SDS011;57391;51.306;22.680;2022-07-29T02:28:55;6.20;;;3.20;;
70049;SDS011;57391;51.306;22.680;2022-07-29T02:31:28;8.50;;;3.00;;
70049;SDS011;57391;51.306;22.680;2022-07-29T02:34:00;4.60;;;2.70;;
70049;SDS011;57391;51.306;22.680;2022-07-29T02:36:31;7.90;;;3.10;;
70049;SDS011;57391;51.306;22.680;2022-07-29T02:39:00;6.50;;;3.40;;
70049;SDS011;57391;51.306;22.680;2022-07-29T02:41:31;7.40;;;3.20;;
70049;SDS011;57391;51.306;22.680;2022-07-29T02:44:08;6.10;;;3.20;;
70049;SDS011;57391;51.306;22.680;2022-07-29T02:46:43;6.30;;;3.20;;
70049;SDS011;57391;51.306;22.680;2022-07-29T02:52:37;7.40;;;3.40;;
70049;SDS011;57391;51.306;22.680;2022-07-29T02:55:26;6.30;;;3.10;;
70049;SDS011;57391;51.306;22.680;2022-07-29T02:58:08;6.20;;;3.10;;
70049;SDS011;57391;51.306;22.680;2022-07-29T03:00:47;6.70;;;2.80;;
70049;SDS011;57391;51.306;22.680;2022-07-29T03:03:19;7.50;;;3.00;;
70049;SDS011;57391;51.306;22.680;2022-07-29T03:05:48;6.80;;;3.00;;
70049;SDS011;57391;51.306;22.680;2022-07-29T03:08:15;6.50;;;3.00;;
70049;SDS011;57391;51.306;22.680;2022-07-29T03:10:44;5.50;;;3.10;;
70049;SDS011;57391;51.306;22.680;2022-07-29T03:13:14;5.00;;;3.00;;
70049;SDS011;57391;51.306;22.680;2022-07-29T03:15:43;6.40;;;3.30;;
70049;SDS011;57391;51.306;22.680;2022-07-29T03:18:12;8.20;;;3.20;;
70049;SDS011;57391;51.306;22.680;2022-07-29T03:20:41;6.30;;;3.30;;
70049;SDS011;57391;51.306;22.680;2022-07-29T03:23:09;6.70;;;3.30;;
70049;SDS011;57391;51.306;22.680;2022-07-29T03:25:36;6.40;;;3.20;;
70049;SDS011;57391;51.306;22.680;2022-07-29T03:28:03;6.30;;;3.30;;
70049;SDS011;57391;51.306;22.680;2022-07-29T03:30:30;5.60;;;2.80;;
70049;SDS011;57391;51.306;22.680;2022-07-29T03:32:57;7.40;;;3.30;;
70049;SDS011;57391;51.306;22.680;2022-07-29T03:35:24;6.30;;;3.20;;
70049;SDS011;57391;51.306;22.680;2022-07-29T03:37:52;9.20;;;3.40;;
70049;SDS011;57391;51.306;22.680;2022-07-29T03:40:26;6.30;;;3.10;;
70049;SDS011;57391;51.306;22.680;2022-07-29T03:43:00;5.80;;;3.00;;
70049;SDS011;57391;51.306;22.680;2022-07-29T03:45:29;5.40;;;3.10;;
70049;SDS011;57391;51.306;22.680;2022-07-29T03:48:05;7.60;;;3.30;;
70049;SDS011;57391;51.306;22.680;2022-07-29T03:50:35;7.90;;;3.30;;
70049;SDS011;57391;51.306;22.680;2022-07-29T03:53:03;5.80;;;3.30;;
70049;SDS011;57391;51.306;22.680;2022-07-29T03:55:36;8.90;;;3.50;;
70049;SDS011;57391;51.306;22.680;2022-07-29T03:58:08;5.90;;;3.20;;
70049;SDS011;57391;51.306;22.680;2022-07-29T04:00:36;6.90;;;3.10;;
70049;SDS011;57391;51.306;22.680;2022-07-29T04:03:04;6.40;;;2.80;;
70049;SDS011;57391;51.306;22.680;2022-07-29T04:05:32;5.40;;;2.70;;
70049;SDS011;57391;51.306;22.680;2022-07-29T04:07:59;5.50;;;2.70;;
70049;SDS011;57391;51.306;22.680;2022-07-29T04:10:26;4.40;;;2.80;;
70049;SDS011;57391;51.306;22.680;2022-07-29T04:12:54;5.30;;;2.70;;
70049;SDS011;57391;51.306;22.680;2022-07-29T04:15:21;4.70;;;2.30;;
70049;SDS011;57391;51.306;22.680;2022-07-29T04:17:48;6.00;;;2.40;;
70049;SDS011;57391;51.306;22.680;2022-07-29T04:20:15;4.90;;;2.70;;
70049;SDS011;57391;51.306;22.680;2022-07-29T04:22:42;6.40;;;2.60;;
70049;SDS011;57391;51.306;22.680;2022-07-29T04:25:09;7.60;;;2.60;;
70049;SDS011;57391;51.306;22.680;2022-07-29T04:27:36;6.40;;;2.60;;
70049;SDS011;57391;51.306;22.680;2022-07-29T04:30:23;4.60;;;2.40;;
70049;SDS011;57391;51.306;22.680;2022-07-29T04:32:50;6.00;;;2.50;;
70049;SDS011;57391;51.306;22.680;2022-07-29T04:35:20;11.70;;;2.90;;
70049;SDS011;57391;51.306;22.680;2022-07-29T04:37:48;6.40;;;2.40;;
70049;SDS011;57391;51.306;22.680;2022-07-29T04:40:15;5.80;;;2.60;;
70049;SDS011;57391;51.306;22.680;2022-07-29T04:42:42;4.90;;;2.30;;
70049;SDS011;57391;51.306;22.680;2022-07-29T04:45:09;6.50;;;2.70;;
70049;SDS011;57391;51.306;22.680;2022-07-29T04:47:37;4.40;;;2.30;;
70049;SDS011;57391;51.306;22.680;2022-07-29T04:50:04;4.60;;;2.50;;
70049;SDS011;57391;51.306;22.680;2022-07-29T04:52:33;3.80;;;2.10;;
70049;SDS011;57391;51.306;22.680;2022-07-29T04:55:02;3.80;;;2.20;;
70049;SDS011;57391;51.306;22.680;2022-07-29T04:57:31;4.00;;;2.00;;
70049;SDS011;57391;51.306;22.680;2022-07-29T04:59:58;5.60;;;2.30;;
70049;SDS011;57391;51.306;22.680;2022-07-29T05:02:25;6.00;;;2.50;;
70049;SDS011;57391;51.306;22.680;2022-07-29T05:04:53;5.70;;;2.30;;
70049;SDS011;57391;51.306;22.680;2022-07-29T05:07:20;3.10;;;2.10;;
70049;SDS011;57391;51.306;22.680;2022-07-29T05:09:47;6.30;;;2.50;;
70049;SDS011;57391;51.306;22.680;2022-07-29T05:12:14;6.40;;;2.60;;
70049;SDS011;57391;51.306;22.680;2022-07-29T05:14:42;4.70;;;2.30;;
70049;SDS011;57391;51.306;22.680;2022-07-29T05:17:09;4.50;;;2.20;;
70049;SDS011;57391;51.306;22.680;2022-07-29T05:19:36;4.50;;;2.20;;
70049;SDS011;57391;51.306;22.680;2022-07-29T05:22:03;5.30;;;2.30;;
70049;SDS011;57391;51.306;22.680;2022-07-29T05:24:30;5.90;;;2.80;;
70049;SDS011;57391;51.306;22.680;2022-07-29T05:26:57;6.00;;;2.60;;
70049;SDS011;57391;51.306;22.680;2022-07-29T05:29:25;5.10;;;2.60;;
70049;SDS011;57391;51.306;22.680;2022-07-29T05:31:53;4.10;;;2.40;;
70049;SDS011;57391;51.306;22.680;2022-07-29T05:34:21;8.10;;;2.50;;
70049;SDS011;57391;51.306;22.680;2022-07-29T05:36:48;7.50;;;2.50;;
70049;SDS011;57391;51.306;22.680;2022-07-29T05:39:16;6.70;;;2.50;;
70049;SDS011;57391;51.306;22.680;2022-07-29T05:41:43;8.10;;;2.40;;
70049;SDS011;57391;51.306;22.680;2022-07-29T05:44:10;5.00;;;2.40;;
70049;SDS011;57391;51.306;22.680;2022-07-29T05:46:40;4.60;;;2.10;;
70049;SDS011;57391;51.306;22.680;2022-07-29T05:49:07;3.70;;;2.10;;
70049;SDS011;57391;51.306;22.680;2022-07-29T05:51:35;4.60;;;2.30;;
70049;SDS011;57391;51.306;22.680;2022-07-29T05:54:02;4.80;;;2.30;;
70049;SDS011;57391;51.306;22.680;2022-07-29T05:56:30;4.20;;;2.00;;
70049;SDS011;57391;51.306;22.680;2022-07-29T05:58:57;3.80;;;2.10;;
70049;SDS011;57391;51.306;22.680;2022-07-29T06:01:25;4.10;;;1.90;;
70049;SDS011;57391;51.306;22.680;2022-07-29T06:03:52;4.40;;;1.80;;
70049;SDS011;57391;51.306;22.680;2022-07-29T06:06:20;4.30;;;1.90;;
70049;SDS011;57391;51.306;22.680;2022-07-29T06:08:47;6.40;;;1.90;;
70049;SDS011;57391;51.306;22.680;2022-07-29T06:11:14;5.40;;;1.60;;
70049;SDS011;57391;51.306;22.680;2022-07-29T06:13:41;4.50;;;1.80;;
70049;SDS011;57391;51.306;22.680;2022-07-29T06:16:08;3.90;;;1.70;;
70049;SDS011;57391;51.306;22.680;2022-07-29T06:18:35;5.00;;;1.80;;
70049;SDS011;57391;51.306;22.680;2022-07-29T06:21:07;3.70;;;1.50;;
70049;SDS011;57391;51.306;22.680;2022-07-29T06:23:37;3.00;;;1.50;;
70049;SDS011;57391;51.306;22.680;2022-07-29T06:26:05;4.70;;;1.70;;
70049;SDS011;57391;51.306;22.680;2022-07-29T06:28:33;3.50;;;1.50;;
70049;SDS011;57391;51.306;22.680;2022-07-29T06:31:00;2.70;;;1.60;;
70049;SDS011;57391;51.306;22.680;2022-07-29T06:33:27;3.00;;;1.50;;
70049;SDS011;57391;51.306;22.680;2022-07-29T06:35:54;4.20;;;1.50;;
70049;SDS011;57391;51.306;22.680;2022-07-29T06:38:22;3.90;;;1.70;;
70049;SDS011;57391;51.306;22.680;2022-07-29T06:40:49;5.40;;;1.50;;
70049;SDS011;57391;51.306;22.680;2022-07-29T06:43:38;4.60;;;1.40;;
70049;SDS011;57391;51.306;22.680;2022-07-29T06:46:10;4.60;;;1.30;;
70049;SDS011;57391;51.306;22.680;2022-07-29T06:48:40;3.00;;;1.20;;
70049;SDS011;57391;51.306;22.680;2022-07-29T06:51:11;3.60;;;1.30;;
70049;SDS011;57391;51.306;22.680;2022-07-29T06:53:38;2.50;;;1.10;;
70049;SDS011;57391;51.306;22.680;2022-07-29T06:56:07;2.20;;;1.10;;
70049;SDS011;57391;51.306;22.680;2022-07-29T06:58:39;3.30;;;1.20;;
70049;SDS011;57391;51.306;22.680;2022-07-29T07:01:07;3.80;;;1.40;;
70049;SDS011;57391;51.306;22.680;2022-07-29T07:03:34;3.20;;;1.20;;
70049;SDS011;57391;51.306;22.680;2022-07-29T07:06:01;3.40;;;1.10;;
70049;SDS011;57391;51.306;22.680;2022-07-29T07:08:28;3.40;;;1.40;;
70049;SDS011;57391;51.306;22.680;2022-07-29T07:10:56;3.90;;;1.20;;
70049;SDS011;57391;51.306;22.680;2022-07-29T07:13:23;3.50;;;1.30;;
70049;SDS011;57391;51.306;22.680;2022-07-29T07:15:51;5.90;;;1.10;;
70049;SDS011;57391;51.306;22.680;2022-07-29T07:18:19;1.80;;;1.20;;
70049;SDS011;57391;51.306;22.680;2022-07-29T07:20:46;3.70;;;1.20;;
70049;SDS011;57391;51.306;22.680;2022-07-29T07:23:14;3.70;;;1.00;;
70049;SDS011;57391;51.306;22.680;2022-07-29T07:25:41;3.00;;;1.30;;
70049;SDS011;57391;51.306;22.680;2022-07-29T07:28:08;2.70;;;1.10;;
70049;SDS011;57391;51.306;22.680;2022-07-29T07:30:36;3.50;;;1.30;;
70049;SDS011;57391;51.306;22.680;2022-07-29T07:33:03;3.60;;;1.40;;
70049;SDS011;57391;51.306;22.680;2022-07-29T07:35:31;3.00;;;1.10;;
70049;SDS011;57391;51.306;22.680;2022-07-29T07:37:58;4.90;;;1.50;;
70049;SDS011;57391;51.306;22.680;2022-07-29T07:40:25;2.50;;;1.10;;
70049;SDS011;57391;51.306;22.680;2022-07-29T07:42:53;3.80;;;1.00;;
70049;SDS011;57391;51.306;22.680;2022-07-29T07:45:20;2.90;;;1.20;;
70049;SDS011;57391;51.306;22.680;2022-07-29T07:47:47;1.70;;;1.00;;
70049;SDS011;57391;51.306;22.680;2022-07-29T07:50:14;3.10;;;1.20;;
70049;SDS011;57391;51.306;22.680;2022-07-29T07:52:52;3.10;;;1.10;;
70049;SDS011;57391;51.306;22.680;2022-07-29T07:55:25;2.40;;;1.20;;
70049;SDS011;57391;51.306;22.680;2022-07-29T07:57:54;2.30;;;1.00;;
70049;SDS011;57391;51.306;22.680;2022-07-29T08:00:22;4.00;;;1.10;;
70049;SDS011;57391;51.306;22.680;2022-07-29T08:02:49;2.80;;;1.00;;
70049;SDS011;57391;51.306;22.680;2022-07-29T08:05:17;2.50;;;1.10;;
70049;SDS011;57391;51.306;22.680;2022-07-29T08:07:46;3.60;;;1.10;;
70049;SDS011;57391;51.306;22.680;2022-07-29T08:10:14;2.50;;;1.10;;
70049;SDS011;57391;51.306;22.680;2022-07-29T08:13:07;2.40;;;1.00;;
70049;SDS011;57391;51.306;22.680;2022-07-29T08:15:35;2.50;;;1.20;;
70049;SDS011;57391;51.306;22.680;2022-07-29T08:18:03;2.60;;;1.00;;
70049;SDS011;57391;51.306;22.680;2022-07-29T08:20:30;3.40;;;1.10;;
70049;SDS011;57391;51.306;22.680;2022-07-29T08:22:59;4.50;;;1.10;;
70049;SDS011;57391;51.306;22.680;2022-07-29T08:25:27;1.90;;;0.80;;
70049;SDS011;57391;51.306;22.680;2022-07-29T08:27:54;2.20;;;0.90;;
70049;SDS011;57391;51.306;22.680;2022-07-29T08:30:21;3.70;;;1.00;;
70049;SDS011;57391;51.306;22.680;2022-07-29T08:32:48;1.80;;;0.90;;
70049;SDS011;57391;51.306;22.680;2022-07-29T08:35:20;1.90;;;1.00;;
70049;SDS011;57391;51.306;22.680;2022-07-29T08:37:48;2.10;;;1.00;;
70049;SDS011;57391;51.306;22.680;2022-07-29T08:40:16;2.70;;;1.00;;
70049;SDS011;57391;51.306;22.680;2022-07-29T08:42:43;3.00;;;1.00;;
70049;SDS011;57391;51.306;22.680;2022-07-29T08:45:10;4.40;;;1.20;;
70049;SDS011;57391;51.306;22.680;2022-07-29T08:47:39;2.60;;;1.10;;
70049;SDS011;57391;51.306;22.680;2022-07-29T08:50:08;3.60;;;1.20;;
70049;SDS011;57391;51.306;22.680;2022-07-29T08:52:39;2.50;;;1.10;;
70049;SDS011;57391;51.306;22.680;2022-07-29T08:55:08;2.40;;;1.00;;
70049;SDS011;57391;51.306;22.680;2022-07-29T08:57:38;3.00;;;0.90;;
70049;SDS011;57391;51.306;22.680;2022-07-29T09:00:07;2.20;;;0.90;;
70049;SDS011;57391;51.306;22.680;2022-07-29T09:02:42;2.30;;;1.10;;
70049;SDS011;57391;51.306;22.680;2022-07-29T09:05:12;2.20;;;0.90;;
70049;SDS011;57391;51.306;22.680;2022-07-29T09:07:40;1.80;;;1.10;;
70049;SDS011;57391;51.306;22.680;2022-07-29T09:10:12;2.60;;;0.90;;
70049;SDS011;57391;51.306;22.680;2022-07-29T09:12:40;1.70;;;0.90;;
70049;SDS011;57391;51.306;22.680;2022-07-29T09:15:07;2.50;;;1.00;;
70049;SDS011;57391;51.306;22.680;2022-07-29T09:17:47;2.90;;;1.00;;
70049;SDS011;57391;51.306;22.680;2022-07-29T09:20:19;2.70;;;1.00;;
70049;SDS011;57391;51.306;22.680;2022-07-29T09:22:49;1.40;;;0.90;;
70049;SDS011;57391;51.306;22.680;2022-07-29T09:25:39;2.80;;;1.10;;
70049;SDS011;57391;51.306;22.680;2022-07-29T09:28:11;2.80;;;1.20;;
70049;SDS011;57391;51.306;22.680;2022-07-29T09:30:54;3.00;;;1.20;;
70049;SDS011;57391;51.306;22.680;2022-07-29T09:33:23;1.60;;;0.90;;
70049;SDS011;57391;51.306;22.680;2022-07-29T09:36:09;2.90;;;1.30;;
70049;SDS011;57391;51.306;22.680;2022-07-29T09:38:37;2.60;;;1.20;;
70049;SDS011;57391;51.306;22.680;2022-07-29T09:41:05;2.80;;;1.10;;
70049;SDS011;57391;51.306;22.680;2022-07-29T09:43:34;2.30;;;1.20;;
70049;SDS011;57391;51.306;22.680;2022-07-29T09:46:12;2.10;;;1.00;;
70049;SDS011;57391;51.306;22.680;2022-07-29T09:48:40;2.90;;;1.20;;
70049;SDS011;57391;51.306;22.680;2022-07-29T09:51:18;3.00;;;1.00;;
70049;SDS011;57391;51.306;22.680;2022-07-29T09:53:46;2.90;;;1.00;;
70049;SDS011;57391;51.306;22.680;2022-07-29T09:56:14;3.20;;;1.00;;
70049;SDS011;57391;51.306;22.680;2022-07-29T09:58:41;4.10;;;1.30;;
70049;SDS011;57391;51.306;22.680;2022-07-29T10:01:08;2.60;;;1.10;;
70049;SDS011;57391;51.306;22.680;2022-07-29T10:03:52;3.40;;;1.20;;
70049;SDS011;57391;51.306;22.680;2022-07-29T10:06:20;2.10;;;1.10;;
70049;SDS011;57391;51.306;22.680;2022-07-29T10:08:47;2.00;;;1.00;;
70049;SDS011;57391;51.306;22.680;2022-07-29T10:11:17;3.00;;;1.10;;
70049;SDS011;57391;51.306;22.680;2022-07-29T10:13:47;1.90;;;1.00;;
70049;SDS011;57391;51.306;22.680;2022-07-29T10:16:16;3.20;;;0.90;;
70049;SDS011;57391;51.306;22.680;2022-07-29T10:18:44;3.10;;;1.00;;
70049;SDS011;57391;51.306;22.680;2022-07-29T10:21:13;4.50;;;1.40;;
70049;SDS011;57391;51.306;22.680;2022-07-29T10:23:42;3.20;;;1.20;;
70049;SDS011;57391;51.306;22.680;2022-07-29T10:26:10;3.30;;;1.30;;
70049;SDS011;57391;51.306;22.680;2022-07-29T10:28:38;2.00;;;0.90;;
70049;SDS011;57391;51.306;22.680;2022-07-29T10:31:08;2.20;;;1.00;;
70049;SDS011;57391;51.306;22.680;2022-07-29T10:34:04;3.80;;;1.10;;
70049;SDS011;57391;51.306;22.680;2022-07-29T10:36:50;3.00;;;1.00;;
70049;SDS011;57391;51.306;22.680;2022-07-29T10:40:15;3.40;;;1.00;;
70049;SDS011;57391;51.306;22.680;2022-07-29T10:43:17;3.60;;;1.10;;
70049;SDS011;57391;51.306;22.680;2022-07-29T10:45:56;3.70;;;1.10;;
70049;SDS011;57391;51.306;22.680;2022-07-29T10:48:25;4.10;;;1.30;;
70049;SDS011;57391;51.306;22.680;2022-07-29T10:50:54;3.40;;;1.10;;
70049;SDS011;57391;51.306;22.680;2022-07-29T10:56:27;4.10;;;1.10;;
70049;SDS011;57391;51.306;22.680;2022-07-29T11:05:06;3.50;;;1.00;;
70049;SDS011;57391;51.306;22.680;2022-07-29T11:07:37;2.50;;;1.00;;
70049;SDS011;57391;51.306;22.680;2022-07-29T11:15:54;3.30;;;0.90;;
70049;SDS011;57391;51.306;22.680;2022-07-29T11:18:23;2.00;;;1.10;;
70049;SDS011;57391;51.306;22.680;2022-07-29T11:20:51;3.10;;;1.20;;
70049;SDS011;57391;51.306;22.680;2022-07-29T11:23:28;2.60;;;1.20;;
70049;SDS011;57391;51.306;22.680;2022-07-29T11:26:17;2.30;;;1.10;;
70049;SDS011;57391;51.306;22.680;2022-07-29T11:31:46;2.70;;;1.00;;
70049;SDS011;57391;51.306;22.680;2022-07-29T11:40:08;1.60;;;1.00;;
70049;SDS011;57391;51.306;22.680;2022-07-29T11:47:40;1.90;;;1.10;;
70049;SDS011;57391;51.306;22.680;2022-07-29T11:50:35;4.60;;;1.10;;
70049;SDS011;57391;51.306;22.680;2022-07-29T11:53:10;6.00;;;1.00;;
70049;SDS011;57391;51.306;22.680;2022-07-29T11:55:39;2.30;;;1.10;;
70049;SDS011;57391;51.306;22.680;2022-07-29T11:58:07;3.10;;;1.20;;
70049;SDS011;57391;51.306;22.680;2022-07-29T12:00:38;2.60;;;1.00;;
70049;SDS011;57391;51.306;22.680;2022-07-29T12:03:08;4.10;;;1.40;;
70049;SDS011;57391;51.306;22.680;2022-07-29T12:05:41;2.10;;;1.00;;
70049;SDS011;57391;51.306;22.680;2022-07-29T12:08:17;3.00;;;1.20;;
70049;SDS011;57391;51.306;22.680;2022-07-29T12:10:47;2.30;;;1.20;;
70049;SDS011;57391;51.306;22.680;2022-07-29T12:13:18;3.00;;;1.20;;
70049;SDS011;57391;51.306;22.680;2022-07-29T12:15:56;3.50;;;1.10;;
70049;SDS011;57391;51.306;22.680;2022-07-29T12:18:24;1.90;;;1.10;;
70049;SDS011;57391;51.306;22.680;2022-07-29T12:20:59;3.10;;;1.30;;
70049;SDS011;57391;51.306;22.680;2022-07-29T12:23:31;3.70;;;1.40;;
70049;SDS011;57391;51.306;22.680;2022-07-29T12:25:59;2.80;;;1.40;;
70049;SDS011;57391;51.306;22.680;2022-07-29T12:28:30;2.70;;;1.40;;
70049;SDS011;57391;51.306;22.680;2022-07-29T12:31:04;3.00;;;1.40;;
70049;SDS011;57391;51.306;22.680;2022-07-29T12:33:31;2.40;;;1.20;;
70049;SDS011;57391;51.306;22.680;2022-07-29T12:36:02;2.80;;;1.30;;
70049;SDS011;57391;51.306;22.680;2022-07-29T12:38:30;2.90;;;1.20;;
70049;SDS011;57391;51.306;22.680;2022-07-29T12:40:57;3.60;;;1.40;;
70049;SDS011;57391;51.306;22.680;2022-07-29T12:43:25;2.70;;;1.20;;
70049;SDS011;57391;51.306;22.680;2022-07-29T12:45:55;2.30;;;1.20;;
70049;SDS011;57391;51.306;22.680;2022-07-29T12:48:37;2.30;;;1.00;;
70049;SDS011;57391;51.306;22.680;2022-07-29T12:51:10;3.20;;;1.50;;
70049;SDS011;57391;51.306;22.680;2022-07-29T12:53:40;3.20;;;1.50;;
70049;SDS011;57391;51.306;22.680;2022-07-29T12:56:15;4.00;;;1.30;;
70049;SDS011;57391;51.306;22.680;2022-07-29T12:58:43;3.80;;;1.30;;
70049;SDS011;57391;51.306;22.680;2022-07-29T13:01:15;4.40;;;1.30;;
70049;SDS011;57391;51.306;22.680;2022-07-29T13:03:58;4.20;;;1.30;;
70049;SDS011;57391;51.306;22.680;2022-07-29T13:06:40;2.60;;;1.50;;
70049;SDS011;57391;51.306;22.680;2022-07-29T13:09:15;5.10;;;1.50;;
70049;SDS011;57391;51.306;22.680;2022-07-29T13:11:43;3.40;;;1.30;;
70049;SDS011;57391;51.306;22.680;2022-07-29T13:14:35;3.30;;;1.40;;
70049;SDS011;57391;51.306;22.680;2022-07-29T13:19:50;3.50;;;1.30;;
70049;SDS011;57391;51.306;22.680;2022-07-29T13:22:21;2.20;;;1.40;;
70049;SDS011;57391;51.306;22.680;2022-07-29T13:24:56;3.60;;;1.60;;
70049;SDS011;57391;51.306;22.680;2022-07-29T13:27:32;3.40;;;1.40;;
70049;SDS011;57391;51.306;22.680;2022-07-29T13:30:03;3.30;;;1.30;;
70049;SDS011;57391;51.306;22.680;2022-07-29T13:32:32;2.60;;;1.40;;
70049;SDS011;57391;51.306;22.680;2022-07-29T13:35:07;3.20;;;1.40;;
70049;SDS011;57391;51.306;22.680;2022-07-29T13:37:35;2.20;;;1.40;;
70049;SDS011;57391;51.306;22.680;2022-07-29T13:40:06;2.50;;;1.50;;
70049;SDS011;57391;51.306;22.680;2022-07-29T13:42:35;3.30;;;1.70;;
70049;SDS011;57391;51.306;22.680;2022-07-29T13:45:03;3.20;;;1.40;;
70049;SDS011;57391;51.306;22.680;2022-07-29T13:47:33;4.30;;;1.60;;
70049;SDS011;57391;51.306;22.680;2022-07-29T13:50:01;4.60;;;1.70;;
70049;SDS011;57391;51.306;22.680;2022-07-29T13:52:30;3.60;;;1.60;;
70049;SDS011;57391;51.306;22.680;2022-07-29T13:54:57;3.40;;;1.50;;
70049;SDS011;57391;51.306;22.680;2022-07-29T13:57:24;2.20;;;1.50;;
70049;SDS011;57391;51.306;22.680;2022-07-29T13:59:52;4.60;;;1.60;;
70049;SDS011;57391;51.306;22.680;2022-07-29T14:02:21;3.10;;;1.60;;
70049;SDS011;57391;51.306;22.680;2022-07-29T14:04:48;3.20;;;1.50;;
70049;SDS011;57391;51.306;22.680;2022-07-29T14:07:16;3.30;;;1.60;;
70049;SDS011;57391;51.306;22.680;2022-07-29T14:09:43;4.00;;;1.70;;
70049;SDS011;57391;51.306;22.680;2022-07-29T14:12:11;3.90;;;1.70;;
70049;SDS011;57391;51.306;22.680;2022-07-29T14:14:38;3.10;;;1.50;;
70049;SDS011;57391;51.306;22.680;2022-07-29T14:17:05;2.80;;;1.60;;
70049;SDS011;57391;51.306;22.680;2022-07-29T14:19:33;2.60;;;1.60;;
70049;SDS011;57391;51.306;22.680;2022-07-29T14:22:05;4.70;;;2.00;;
70049;SDS011;57391;51.306;22.680;2022-07-29T14:24:34;2.90;;;1.50;;
70049;SDS011;57391;51.306;22.680;2022-07-29T14:27:05;6.40;;;1.90;;
70049;SDS011;57391;51.306;22.680;2022-07-29T14:29:34;4.20;;;1.90;;
70049;SDS011;57391;51.306;22.680;2022-07-29T14:32:01;7.90;;;2.30;;
70049;SDS011;57391;51.306;22.680;2022-07-29T14:34:29;5.10;;;2.10;;
70049;SDS011;57391;51.306;22.680;2022-07-29T14:36:56;5.70;;;2.00;;
70049;SDS011;57391;51.306;22.680;2022-07-29T14:39:23;3.60;;;1.90;;
70049;SDS011;57391;51.306;22.680;2022-07-29T14:41:51;3.20;;;1.70;;
70049;SDS011;57391;51.306;22.680;2022-07-29T14:44:18;4.50;;;1.70;;
70049;SDS011;57391;51.306;22.680;2022-07-29T14:46:45;4.30;;;1.70;;
70049;SDS011;57391;51.306;22.680;2022-07-29T14:49:14;5.80;;;1.80;;
70049;SDS011;57391;51.306;22.680;2022-07-29T14:51:41;3.60;;;1.60;;
70049;SDS011;57391;51.306;22.680;2022-07-29T14:54:08;3.10;;;1.60;;
70049;SDS011;57391;51.306;22.680;2022-07-29T14:56:35;4.40;;;1.40;;
70049;SDS011;57391;51.306;22.680;2022-07-29T14:59:02;3.40;;;1.70;;
70049;SDS011;57391;51.306;22.680;2022-07-29T15:01:30;3.50;;;1.60;;
70049;SDS011;57391;51.306;22.680;2022-07-29T15:03:57;4.10;;;1.40;;
70049;SDS011;57391;51.306;22.680;2022-07-29T15:06:26;3.60;;;1.60;;
70049;SDS011;57391;51.306;22.680;2022-07-29T15:08:53;3.00;;;1.80;;
70049;SDS011;57391;51.306;22.680;2022-07-29T15:11:20;3.90;;;1.70;;
70049;SDS011;57391;51.306;22.680;2022-07-29T15:13:47;3.10;;;1.60;;
70049;SDS011;57391;51.306;22.680;2022-07-29T15:16:15;4.00;;;1.80;;
70049;SDS011;57391;51.306;22.680;2022-07-29T15:18:42;4.40;;;1.80;;
70049;SDS011;57391;51.306;22.680;2022-07-29T15:21:09;2.70;;;1.60;;
70049;SDS011;57391;51.306;22.680;2022-07-29T15:23:36;6.60;;;1.70;;
70049;SDS011;57391;51.306;22.680;2022-07-29T15:26:03;5.40;;;2.00;;
70049;SDS011;57391;51.306;22.680;2022-07-29T15:28:30;3.30;;;1.40;;
70049;SDS011;57391;51.306;22.680;2022-07-29T15:30:58;4.60;;;1.70;;
70049;SDS011;57391;51.306;22.680;2022-07-29T15:33:25;2.80;;;1.60;;
70049;SDS011;57391;51.306;22.680;2022-07-29T15:35:52;3.50;;;1.90;;
70049;SDS011;57391;51.306;22.680;2022-07-29T15:38:19;3.70;;;1.70;;
70049;SDS011;57391;51.306;22.680;2022-07-29T15:40:47;5.50;;;1.80;;